Agoura Hills, California
Current Conditions -  °F | °C
As of 9:51 AM on Thursday 29 Jan 2015 (Local Time) from KVNY Reporting Station
Overcast Overcast  
Wind Chill: 20°   Ceiling: 17000
Heat Index: 20°   Visibility: 10mi
Dew Point:   Wind: 15mph
Humidity: 39%   Direction: 360°N
Pressure: 30.07"   Gusts: NA
Location:  34.15°N, 118.77°W
Report Text: KVNY 291751Z 36013KT 10SM OVC170 20/06 A3007 RMK AO2 SLP175 T02000056 10200 20167 51013
Loading
Personal Weather Stations






























Interactive Weather Map New forecast layout! Learn more

10-Day Weather Forecast

Advertisements
Track Severe Weather on mobile